createdAt,value
2022-10-31T00:01:02.195Z,79.19
2022-10-31T00:03:28.801Z,79.00
2022-10-31T00:05:55.281Z,78.74
2022-10-31T00:08:21.735Z,79.52
2022-10-31T00:10:48.216Z,79.38
2022-10-31T00:13:15.290Z,79.37
2022-10-31T00:15:42.525Z,79.06
2022-10-31T00:18:10.841Z,79.57
2022-10-31T00:20:38.105Z,79.40
2022-10-31T00:23:06.318Z,79.57
2022-10-31T00:25:38.199Z,79.45
2022-10-31T00:28:07.179Z,79.56
2022-10-31T00:30:34.880Z,79.70
2022-10-31T00:33:01.868Z,79.98
2022-10-31T00:35:28.584Z,80.17
2022-10-31T00:37:55.077Z,80.47
2022-10-31T00:40:21.522Z,79.93
2022-10-31T00:42:47.987Z,80.12
2022-10-31T00:45:14.593Z,79.77
2022-10-31T00:47:41.051Z,80.06
2022-10-31T00:50:08.502Z,80.27
2022-10-31T00:52:35.332Z,80.43
2022-10-31T00:55:01.809Z,80.68
2022-10-31T00:57:28.250Z,79.64
2022-10-31T00:59:55.154Z,80.48
2022-10-31T01:02:22.407Z,80.72
2022-10-31T01:04:49.454Z,81.27
2022-10-31T01:07:15.965Z,81.08
2022-10-31T01:09:42.442Z,80.10
2022-10-31T01:12:09.610Z,80.70
2022-10-31T01:14:36.115Z,80.62
2022-10-31T01:17:02.624Z,81.02
2022-10-31T01:19:29.196Z,81.75
2022-10-31T01:21:56.419Z,81.79
2022-10-31T01:24:23.137Z,81.43
2022-10-31T01:26:49.642Z,81.26
2022-10-31T01:29:16.148Z,81.49
2022-10-31T01:31:42.640Z,81.24
2022-10-31T01:34:17.730Z,81.08
2022-10-31T01:36:46.119Z,81.25
2022-10-31T01:39:15.019Z,80.93
2022-10-31T01:41:47.465Z,81.02
2022-10-31T01:44:16.833Z,81.44
2022-10-31T01:46:45.926Z,81.45
2022-10-31T01:49:25.109Z,81.15
2022-10-31T01:51:57.540Z,81.18
2022-10-31T01:54:28.001Z,80.65
2022-10-31T01:56:57.444Z,81.26
2022-10-31T01:59:27.998Z,81.49
2022-10-31T02:01:55.088Z,81.89
2022-10-31T02:04:24.802Z,82.33
2022-10-31T02:07:06.528Z,82.44
2022-10-31T02:09:35.235Z,82.99
2022-10-31T02:12:01.987Z,83.62
2022-10-31T02:14:31.528Z,83.61
2022-10-31T02:16:58.757Z,83.16
2022-10-31T02:19:35.666Z,82.13
2022-10-31T02:22:15.862Z,82.22
2022-10-31T02:25:04.452Z,82.85
2022-10-31T02:27:55.734Z,83.06
2022-10-31T02:30:26.909Z,83.27
2022-10-31T02:33:24.460Z,83.05
2022-10-31T02:36:07.161Z,83.16
2022-10-31T02:38:43.185Z,83.45
2022-10-31T02:41:38.682Z,83.51
2022-10-31T02:44:31.071Z,82.37
2022-10-31T02:47:06.427Z,82.00
2022-10-31T02:49:45.097Z,82.46
2022-10-31T02:52:21.109Z,83.30
2022-10-31T02:54:49.442Z,83.18
2022-10-31T02:57:18.814Z,83.30
2022-10-31T02:59:52.410Z,83.46
2022-10-31T03:02:51.956Z,83.54
2022-10-31T03:05:40.276Z,83.15
2022-10-31T03:08:41.981Z,82.84
2022-10-31T03:11:10.922Z,82.48
2022-10-31T03:13:55.595Z,82.68
2022-10-31T03:16:29.967Z,82.70
2022-10-31T03:19:07.646Z,82.49
2022-10-31T03:21:49.428Z,82.42
2022-10-31T03:24:16.557Z,82.57
2022-10-31T03:26:51.217Z,82.68
2022-10-31T03:29:24.031Z,82.34
2022-10-31T03:32:04.251Z,82.47
2022-10-31T03:34:33.035Z,82.31
2022-10-31T03:37:04.443Z,83.48
2022-10-31T03:39:32.717Z,83.23
2022-10-31T03:42:16.033Z,81.88
2022-10-31T03:44:48.315Z,82.30
2022-10-31T03:47:15.209Z,82.87
2022-10-31T03:49:42.200Z,83.40
2022-10-31T03:52:15.059Z,83.81
2022-10-31T03:54:55.746Z,82.78
2022-10-31T03:57:46.117Z,83.27
2022-10-31T04:00:15.757Z,83.35
2022-10-31T04:03:01.874Z,82.84
2022-10-31T04:05:30.732Z,83.72
2022-10-31T04:07:59.814Z,84.48
2022-10-31T04:10:31.997Z,84.63
2022-10-31T04:13:05.959Z,84.32
2022-10-31T04:15:33.339Z,84.12
2022-10-31T04:18:01.605Z,82.67
2022-10-31T04:20:37.251Z,82.81
2022-10-31T04:23:05.049Z,83.82
2022-10-31T04:25:31.542Z,84.50
2022-10-31T04:27:58.459Z,84.82
2022-10-31T04:30:25.239Z,84.08
2022-10-31T04:32:51.781Z,83.79
2022-10-31T04:35:18.341Z,82.78
2022-10-31T04:37:44.813Z,83.45
2022-10-31T04:40:11.814Z,84.15
2022-10-31T04:42:38.374Z,82.98
2022-10-31T04:45:05.420Z,83.34
2022-10-31T04:47:34.086Z,84.14
2022-10-31T04:50:00.887Z,83.94
2022-10-31T04:52:27.820Z,84.13
2022-10-31T04:54:54.271Z,84.46
2022-10-31T04:57:20.767Z,83.88
2022-10-31T04:59:47.240Z,83.78
2022-10-31T05:02:13.866Z,82.55
2022-10-31T05:04:40.556Z,82.68
2022-10-31T05:07:07.069Z,82.94
2022-10-31T05:09:33.651Z,83.23
2022-10-31T05:12:00.263Z,84.03
2022-10-31T05:14:26.719Z,83.94
2022-10-31T05:16:53.169Z,84.31
2022-10-31T05:19:19.812Z,84.73
2022-10-31T05:21:46.271Z,85.43
2022-10-31T05:24:12.753Z,84.79
2022-10-31T05:26:39.536Z,84.89
2022-10-31T05:29:05.995Z,85.52
2022-10-31T05:31:32.432Z,85.27
2022-10-31T05:33:59.038Z,85.51
2022-10-31T05:36:25.534Z,85.13
2022-10-31T05:38:51.998Z,85.09
2022-10-31T05:41:18.778Z,85.02
2022-10-31T05:43:46.313Z,84.72
2022-10-31T05:46:12.741Z,84.42
2022-10-31T05:48:39.492Z,84.23
2022-10-31T05:51:06.134Z,84.21
2022-10-31T05:53:32.614Z,83.93
2022-10-31T05:55:59.094Z,83.99
2022-10-31T05:58:25.578Z,83.81
2022-10-31T06:00:52.061Z,82.64
2022-10-31T06:03:18.802Z,82.90
2022-10-31T06:05:49.236Z,83.42
2022-10-31T06:08:18.958Z,84.33
2022-10-31T06:10:45.582Z,85.03
2022-10-31T06:13:12.068Z,84.80
2022-10-31T06:15:38.561Z,85.09
2022-10-31T06:18:06.704Z,83.86
2022-10-31T06:20:34.576Z,83.94
2022-10-31T06:23:02.264Z,84.56
2022-10-31T06:25:29.393Z,85.04
2022-10-31T06:27:56.956Z,83.78
2022-10-31T06:30:23.717Z,83.92
2022-10-31T06:32:50.906Z,84.48
2022-10-31T06:35:17.892Z,84.54
2022-10-31T06:37:51.501Z,84.48
2022-10-31T06:40:18.216Z,84.81
2022-10-31T06:42:44.949Z,84.60
2022-10-31T06:45:11.436Z,84.18
2022-10-31T06:47:50.753Z,83.26
2022-10-31T06:50:24.507Z,82.94
2022-10-31T06:52:52.782Z,83.51
2022-10-31T06:55:21.622Z,83.87
2022-10-31T06:57:57.684Z,84.74
2022-10-31T07:00:30.242Z,85.23
2022-10-31T07:03:05.949Z,84.78
2022-10-31T07:05:32.598Z,85.03
2022-10-31T07:08:01.974Z,83.70
2022-10-31T07:10:32.158Z,83.30
2022-10-31T07:13:03.609Z,83.38
2022-10-31T07:15:33.573Z,84.21
2022-10-31T07:18:02.349Z,84.17
2022-10-31T07:20:29.945Z,83.64
2022-10-31T07:22:56.605Z,84.27
2022-10-31T07:25:23.442Z,84.56
2022-10-31T07:27:50.047Z,85.01
2022-10-31T07:30:19.818Z,85.13
2022-10-31T07:32:50.947Z,85.07
2022-10-31T07:35:22.981Z,84.52
2022-10-31T07:44:15.275Z,83.80
2022-10-31T07:46:42.885Z,84.16
2022-10-31T07:49:09.319Z,84.42
2022-10-31T07:51:35.761Z,84.73
2022-10-31T07:54:02.285Z,84.38
2022-10-31T07:56:28.809Z,84.02
2022-10-31T07:58:55.320Z,83.67
2022-10-31T08:01:21.839Z,83.52
2022-10-31T08:03:48.359Z,83.03
2022-10-31T08:06:14.829Z,83.63
2022-10-31T08:08:43.908Z,84.23
2022-10-31T08:11:10.471Z,83.68
2022-10-31T08:13:37.015Z,84.11
2022-10-31T08:16:05.405Z,84.77
2022-10-31T08:18:32.050Z,84.91
2022-10-31T08:20:58.562Z,84.61
2022-10-31T08:23:25.141Z,84.26
2022-10-31T08:25:51.710Z,84.51
2022-10-31T08:28:18.196Z,84.08
2022-10-31T08:30:44.706Z,83.72
2022-10-31T08:33:19.040Z,83.90
2022-10-31T08:35:46.142Z,83.34
2022-10-31T08:38:13.679Z,83.68
2022-10-31T08:40:40.512Z,83.12
2022-10-31T08:43:12.263Z,82.85
2022-10-31T08:45:38.787Z,82.86
2022-10-31T08:48:07.555Z,82.71
2022-10-31T08:50:35.736Z,82.53
2022-10-31T08:53:05.987Z,82.87
2022-10-31T08:55:37.021Z,82.46
2022-10-31T08:58:05.629Z,82.48
2022-10-31T09:00:33.207Z,82.25
2022-10-31T09:03:01.910Z,82.09
2022-10-31T09:05:29.068Z,81.84
2022-10-31T09:08:00.703Z,81.63
2022-10-31T09:10:29.072Z,81.42
2022-10-31T09:13:00.447Z,81.12
2022-10-31T09:15:28.535Z,81.71
2022-10-31T09:17:55.394Z,81.05
2022-10-31T09:20:21.945Z,81.41
2022-10-31T09:22:48.526Z,81.29
2022-10-31T09:25:15.236Z,81.03
2022-10-31T09:27:41.733Z,81.08
2022-10-31T09:30:08.766Z,81.40
2022-10-31T09:32:35.261Z,81.20
2022-10-31T09:35:01.923Z,80.53
2022-10-31T09:37:28.889Z,80.24
2022-10-31T09:39:55.455Z,79.61
2022-10-31T09:43:03.375Z,79.02
2022-10-31T09:45:50.698Z,79.23
2022-10-31T09:48:29.097Z,79.20
2022-10-31T09:51:09.886Z,78.77
2022-10-31T09:53:55.116Z,78.35
2022-10-31T09:56:24.389Z,78.45
2022-10-31T09:59:02.619Z,78.23
2022-10-31T10:01:29.232Z,77.09
2022-10-31T10:04:01.900Z,76.43
2022-10-31T10:06:36.674Z,76.66
2022-10-31T10:09:03.304Z,76.12
2022-10-31T10:11:51.684Z,76.43
2022-10-31T10:14:39.692Z,76.11
2022-10-31T10:17:27.595Z,74.79
2022-10-31T10:19:59.789Z,74.94
2022-10-31T10:22:39.183Z,75.07
2022-10-31T10:25:22.537Z,75.41
2022-10-31T10:28:21.016Z,75.48
2022-10-31T10:30:49.821Z,75.78
2022-10-31T10:33:24.150Z,75.05
2022-10-31T10:35:56.416Z,74.93
2022-10-31T10:38:44.287Z,74.12
2022-10-31T10:41:18.485Z,74.03
2022-10-31T10:47:11.065Z,73.85
2022-10-31T10:49:38.174Z,73.79
2022-10-31T10:52:35.322Z,73.25
2022-10-31T10:55:21.270Z,73.89
2022-10-31T10:57:57.194Z,73.50
2022-10-31T11:00:25.411Z,73.02
2022-10-31T11:02:52.810Z,73.25
2022-10-31T11:05:46.006Z,72.07
2022-10-31T11:08:27.744Z,72.22
2022-10-31T11:11:05.113Z,72.24
2022-10-31T11:13:33.653Z,71.81
2022-10-31T11:16:12.839Z,71.99
2022-10-31T11:18:43.939Z,71.97
2022-10-31T11:21:21.959Z,71.81
2022-10-31T11:23:48.463Z,70.73
2022-10-31T11:26:21.875Z,71.45
2022-10-31T11:29:26.639Z,70.91
2022-10-31T11:31:56.288Z,70.64
2022-10-31T11:34:30.971Z,70.99
2022-10-31T11:37:04.250Z,70.64
2022-10-31T11:39:31.168Z,70.60
2022-10-31T11:42:06.333Z,70.67
2022-10-31T11:44:35.604Z,70.14
2022-10-31T11:47:05.706Z,70.25
2022-10-31T11:49:37.459Z,70.08
2022-10-31T11:52:43.138Z,70.29
2022-10-31T11:55:12.485Z,70.38
2022-10-31T11:57:53.284Z,70.30
2022-10-31T12:00:38.673Z,69.75
2022-10-31T12:03:27.875Z,69.59
2022-10-31T12:06:06.230Z,69.43
2022-10-31T12:08:35.958Z,69.70
2022-10-31T12:11:08.624Z,69.38
2022-10-31T12:13:40.571Z,68.90
2022-10-31T12:16:30.706Z,68.40
2022-10-31T12:19:17.281Z,68.01
2022-10-31T12:22:05.432Z,67.75
2022-10-31T12:24:50.149Z,67.89
2022-10-31T12:27:39.045Z,68.03
2022-10-31T12:30:21.435Z,67.47
2022-10-31T12:33:22.899Z,67.54
2022-10-31T12:36:17.216Z,67.01
2022-10-31T12:39:02.133Z,66.47
2022-10-31T12:41:59.246Z,66.31
2022-10-31T12:44:41.312Z,66.53
2022-10-31T12:47:26.201Z,66.34
2022-10-31T12:50:03.158Z,66.18
2022-10-31T12:52:51.368Z,66.67
2022-10-31T12:55:48.354Z,66.88
2022-10-31T12:58:48.398Z,65.80
2022-10-31T13:01:38.258Z,64.76
2022-10-31T13:04:24.989Z,64.72
2022-10-31T13:06:59.293Z,64.20
2022-10-31T13:09:35.005Z,63.14
2022-10-31T13:12:16.341Z,63.51
2022-10-31T13:14:48.575Z,63.64
2022-10-31T13:17:31.303Z,63.79
2022-10-31T13:20:14.554Z,63.55
2022-10-31T13:22:45.057Z,64.00
2022-10-31T13:25:27.417Z,63.66
2022-10-31T13:28:04.373Z,62.96
2022-10-31T13:30:35.642Z,63.23
2022-10-31T13:33:38.802Z,63.39
2022-10-31T13:36:25.477Z,64.36
2022-10-31T13:39:04.138Z,64.52
2022-10-31T13:41:49.341Z,64.86
2022-10-31T13:44:28.683Z,64.82
2022-10-31T13:46:57.689Z,65.18
2022-10-31T13:49:39.460Z,62.73
2022-10-31T13:52:27.144Z,61.26
2022-10-31T13:54:57.904Z,60.99
2022-10-31T13:57:43.359Z,61.17
2022-10-31T14:00:21.798Z,60.88
2022-10-31T14:02:52.882Z,62.23
2022-10-31T14:05:25.361Z,62.53
2022-10-31T14:07:54.018Z,61.49
2022-10-31T14:10:29.900Z,61.22
2022-10-31T14:13:09.514Z,61.59
2022-10-31T14:15:39.243Z,61.10
2022-10-31T14:18:27.040Z,60.55
2022-10-31T14:20:53.943Z,61.17
2022-10-31T14:23:36.123Z,60.99
2022-10-31T14:26:28.153Z,61.56
2022-10-31T14:29:00.620Z,60.39
2022-10-31T14:31:40.855Z,61.88
2022-10-31T14:34:10.064Z,61.17
2022-10-31T14:36:52.081Z,60.13
2022-10-31T14:39:32.780Z,59.57
2022-10-31T14:42:14.969Z,60.79
2022-10-31T14:45:08.057Z,60.54
2022-10-31T14:47:46.626Z,60.13
2022-10-31T14:50:41.917Z,59.70
2022-10-31T14:53:16.594Z,58.78
2022-10-31T14:55:48.357Z,59.35
2022-10-31T14:58:23.204Z,59.51
2022-10-31T15:00:55.144Z,59.39
2022-10-31T15:03:57.444Z,59.98
2022-10-31T15:06:45.898Z,59.83
2022-10-31T15:09:27.462Z,59.52
2022-10-31T15:11:54.202Z,59.24
2022-10-31T15:14:27.115Z,59.48
2022-10-31T15:16:53.787Z,59.60
2022-10-31T15:19:28.279Z,59.55
2022-10-31T15:21:57.150Z,60.29
2022-10-31T15:24:31.011Z,60.33
2022-10-31T15:27:03.805Z,60.57
2022-10-31T15:29:31.916Z,60.81
2022-10-31T15:32:18.856Z,60.70
2022-10-31T15:34:46.753Z,61.08
2022-10-31T15:37:15.949Z,61.43
2022-10-31T15:39:43.849Z,61.39
2022-10-31T15:42:19.938Z,61.51
2022-10-31T15:44:56.386Z,61.12
2022-10-31T15:47:25.454Z,61.57
2022-10-31T15:49:56.842Z,61.83
2022-10-31T15:52:41.181Z,62.05
2022-10-31T15:55:11.518Z,62.11
2022-10-31T15:57:44.844Z,61.85
2022-10-31T16:00:31.549Z,62.15
2022-10-31T16:03:05.354Z,62.81
2022-10-31T16:05:44.437Z,62.60
2022-10-31T16:08:29.429Z,63.19
2022-10-31T16:10:57.865Z,63.07
2022-10-31T16:13:31.874Z,63.47
2022-10-31T16:16:33.613Z,63.51
2022-10-31T16:18:51.827Z,63.26
2022-10-31T16:21:26.458Z,63.51
2022-10-31T16:23:58.403Z,64.02
2022-10-31T16:26:25.767Z,63.59
2022-10-31T16:29:04.763Z,63.44
2022-10-31T16:31:39.142Z,63.44
2022-10-31T16:34:14.564Z,63.66
2022-10-31T16:36:41.283Z,63.60
2022-10-31T16:39:08.589Z,63.72
2022-10-31T16:41:43.125Z,63.87
2022-10-31T16:44:23.315Z,64.06
2022-10-31T16:47:09.276Z,64.23
2022-10-31T16:49:35.808Z,64.20
2022-10-31T16:52:02.478Z,64.57
2022-10-31T16:54:30.236Z,64.47
2022-10-31T16:56:58.418Z,64.25
2022-10-31T16:59:25.068Z,64.60
2022-10-31T17:01:51.691Z,65.03
2022-10-31T17:04:18.713Z,65.69
2022-10-31T17:06:45.218Z,65.93
2022-10-31T17:09:11.949Z,66.05
2022-10-31T17:11:49.196Z,66.35
2022-10-31T17:14:17.402Z,65.95
2022-10-31T17:16:44.331Z,66.35
2022-10-31T17:19:11.920Z,66.06
2022-10-31T17:21:38.788Z,66.85
2022-10-31T17:24:13.680Z,66.80
2022-10-31T17:26:40.741Z,67.08
2022-10-31T17:29:07.561Z,66.95
2022-10-31T17:31:37.229Z,67.25
2022-10-31T17:34:05.359Z,67.36
2022-10-31T17:36:33.518Z,67.00
2022-10-31T17:39:05.565Z,66.45
2022-10-31T17:41:32.141Z,66.60
2022-10-31T17:43:59.631Z,66.71
2022-10-31T17:46:26.526Z,66.11
2022-10-31T17:48:53.182Z,66.19
2022-10-31T17:51:19.796Z,65.78
2022-10-31T17:53:46.295Z,65.63
2022-10-31T17:56:12.868Z,64.95
2022-10-31T17:58:39.459Z,64.17
2022-10-31T18:01:11.767Z,63.45
2022-10-31T18:03:39.338Z,63.13
2022-10-31T18:06:06.122Z,62.66
2022-10-31T18:08:35.107Z,62.57
2022-10-31T18:11:12.979Z,62.49
2022-10-31T18:13:39.643Z,62.31
2022-10-31T18:16:14.912Z,61.49
2022-10-31T18:18:41.479Z,60.82
2022-10-31T18:21:08.045Z,60.62
2022-10-31T18:23:34.815Z,60.28
2022-10-31T18:26:01.553Z,59.35
2022-10-31T18:28:28.032Z,59.44
2022-10-31T18:30:54.521Z,59.01
2022-10-31T18:33:21.236Z,58.84
2022-10-31T18:35:47.820Z,58.44
2022-10-31T18:38:14.299Z,58.50
2022-10-31T18:40:41.569Z,58.47
2022-10-31T18:43:08.179Z,58.08
2022-10-31T18:45:46.599Z,57.65
2022-10-31T18:48:16.268Z,57.97
2022-10-31T18:50:43.643Z,58.12
2022-10-31T18:53:10.258Z,57.63
2022-10-31T18:55:44.061Z,58.16
2022-10-31T18:58:14.043Z,58.17
2022-10-31T19:00:40.630Z,57.80
2022-10-31T19:03:07.185Z,58.01
2022-10-31T19:05:33.812Z,58.05
2022-10-31T19:08:00.293Z,57.44
2022-10-31T19:10:26.878Z,58.26
2022-10-31T19:12:53.948Z,57.80
2022-10-31T19:15:20.601Z,58.44
2022-10-31T19:17:47.275Z,58.19
2022-10-31T19:20:14.236Z,58.30
2022-10-31T19:22:40.773Z,58.43
2022-10-31T19:25:10.340Z,59.07
2022-10-31T19:27:38.153Z,58.14
2022-10-31T19:30:05.710Z,58.45
2022-10-31T19:32:32.209Z,58.64
2022-10-31T19:34:58.936Z,58.46
2022-10-31T19:37:25.580Z,58.78
2022-10-31T19:39:52.680Z,58.77
2022-10-31T19:42:19.259Z,59.15
2022-10-31T19:44:45.855Z,58.76
2022-10-31T19:47:12.468Z,58.86
2022-10-31T19:49:38.942Z,59.31
2022-10-31T19:52:05.465Z,59.39
2022-10-31T19:54:32.199Z,59.00
2022-10-31T19:56:58.703Z,59.33
2022-10-31T19:59:26.336Z,59.54
2022-10-31T20:01:53.029Z,59.35
2022-10-31T20:04:19.637Z,60.01
2022-10-31T20:06:46.801Z,59.87
2022-10-31T20:09:14.825Z,59.75
2022-10-31T20:11:43.227Z,60.24
2022-10-31T20:14:12.759Z,59.85
2022-10-31T20:16:39.856Z,59.92
2022-10-31T20:19:06.663Z,60.53
2022-10-31T20:21:38.398Z,60.13
2022-10-31T20:24:08.416Z,60.38
2022-10-31T20:26:35.531Z,60.33
2022-10-31T20:29:03.317Z,60.09
2022-10-31T20:31:33.856Z,60.45
2022-10-31T20:34:00.692Z,60.40
2022-10-31T20:36:29.543Z,60.68
2022-10-31T20:38:56.122Z,60.39
2022-10-31T20:41:22.695Z,60.51
2022-10-31T20:43:49.370Z,60.71
2022-10-31T20:46:18.819Z,60.78
2022-10-31T20:48:46.106Z,60.37
2022-10-31T20:53:42.715Z,60.32
2022-10-31T20:56:13.870Z,60.38
2022-10-31T20:58:41.657Z,60.31
2022-10-31T21:01:12.198Z,60.23
2022-10-31T21:03:38.864Z,60.69
2022-10-31T21:06:05.711Z,60.33
2022-10-31T21:08:33.188Z,60.37
2022-10-31T21:11:01.057Z,60.03
2022-10-31T21:13:28.553Z,60.10
2022-10-31T21:16:02.466Z,60.52
2022-10-31T21:18:29.773Z,60.52
2022-10-31T21:20:56.568Z,60.57
2022-10-31T21:23:23.892Z,60.35
2022-10-31T21:25:50.518Z,60.18
2022-10-31T21:28:17.525Z,59.88
2022-10-31T21:30:46.455Z,60.18
2022-10-31T21:33:13.713Z,59.73
2022-10-31T21:35:40.307Z,60.32
2022-10-31T21:38:06.919Z,59.76
2022-10-31T21:40:33.547Z,59.95
2022-10-31T21:43:00.456Z,59.65
2022-10-31T21:45:27.155Z,59.79
2022-10-31T21:47:53.620Z,60.04
2022-10-31T21:50:20.362Z,59.95
2022-10-31T21:52:46.866Z,59.93
2022-10-31T21:55:13.415Z,59.70
2022-10-31T21:57:39.952Z,60.25
2022-10-31T22:00:09.017Z,60.55
2022-10-31T22:02:36.368Z,60.44
2022-10-31T22:05:03.393Z,59.96
2022-10-31T22:07:32.160Z,60.58
2022-10-31T22:09:58.667Z,60.62
2022-10-31T22:12:25.200Z,60.29
2022-10-31T22:14:51.738Z,60.27
2022-10-31T22:17:18.392Z,60.66
2022-10-31T22:19:44.906Z,60.79
2022-10-31T22:22:13.164Z,60.30
2022-10-31T22:24:39.658Z,60.54
2022-10-31T22:27:06.205Z,60.76
2022-10-31T22:29:32.774Z,60.67
2022-10-31T22:32:00.662Z,61.05
2022-10-31T22:34:28.411Z,60.74
2022-10-31T22:36:56.202Z,60.79
2022-10-31T22:39:22.768Z,61.21
2022-10-31T22:41:49.245Z,61.17
2022-10-31T22:44:15.742Z,60.74
2022-10-31T22:46:42.263Z,61.08
2022-10-31T22:49:14.738Z,60.96
2022-10-31T22:51:42.316Z,60.71
2022-10-31T22:54:12.738Z,60.87
2022-10-31T22:56:39.295Z,60.99
2022-10-31T22:59:06.344Z,61.26
2022-10-31T23:01:34.237Z,61.55
2022-10-31T23:04:01.210Z,61.65
2022-10-31T23:06:32.518Z,61.66
2022-10-31T23:09:01.105Z,61.35
2022-10-31T23:11:37.688Z,61.54
2022-10-31T23:14:15.936Z,61.51
2022-10-31T23:16:49.765Z,60.90
2022-10-31T23:19:25.043Z,60.87
2022-10-31T23:22:03.075Z,61.13
2022-10-31T23:24:37.693Z,60.88
2022-10-31T23:27:10.618Z,61.18
2022-10-31T23:29:49.192Z,60.92
2022-10-31T23:32:27.663Z,61.15
2022-10-31T23:34:59.065Z,61.02
2022-10-31T23:37:28.654Z,61.02
2022-10-31T23:39:55.420Z,61.01
2022-10-31T23:42:22.926Z,61.33
2022-10-31T23:44:49.838Z,61.25
2022-10-31T23:47:19.019Z,61.16
2022-10-31T23:49:45.695Z,61.67
2022-10-31T23:52:13.375Z,61.32
2022-10-31T23:54:40.369Z,62.02
2022-10-31T23:57:07.060Z,62.36
2022-10-31T23:59:33.911Z,62.31
